Airfield :
LOGIN :

Register | Disclaimer

   EN    FR    IT 

 










Legend :    VFR   Marginal VFR   IFR   Intensive IFR   Very Intensive IFR
Visi :
Ceiling :
>= 8 km
>= 3000ft
5 to 8 km
1000 to 3000 ft
1500m to 5 km
500 to 1000 ft
800 to 1500m
200 to 500 ft
< 800m
< 200 ft
Symbols :   Thunderstorms  Fog  Heavy snow  Heavy precipitations  Wind > 20 kt
SIGMETs :     Misc.  Thunderstorms  Icing  Turbulence  Mountain Waves  Volcanic Ashes







- Airport Elevation : 844 ft
- IATA code : OSR


LKMT - Ostrava-Mosnov

CURRENT METAR :
  • 132000Z 03005KT 3000 BR FEW010 OVC028 M01/M02 Q1021 NOSIG

EXPIRED METARs :
  • 131930Z 03005KT 3500 BR BKN009 OVC030 M01/M02 Q1021 NOSIG
  • 131900Z 03004KT 3500 BR BKN010 OVC030 M01/M02 Q1021 NOSIG
  • 131830Z 04004KT 3500 BR OVC010 M01/M02 Q1021 NOSIG
  • 131800Z 04004KT 3500 BR OVC009 M01/M02 Q1021 NOSIG
  • 131730Z 04004KT 4000 BR OVC009 M01/M02 Q1021 NOSIG

TAF TAF LKMT
Valid from the 13 at 18:00 until the 15 at 00:00 UTC


131700Z 1318/1500 03006KT 7000 BKN016
TEMPO 1318/1412 4000 BR BKN010
PROB30
TEMPO 1318/1412 2000 BR BKN005
No reported NOTAMs for that airfield.



MET'MAP, your aeronautical weather chart ! - Copyright ORBIFLY December 2007 - Disclaimer

ORBIFLY MET'MAP TEAM :

Programming & Development : Alexandra Zaïnal
Concept & Development : Baudouin d'Aumeries
Co-Development & Prog : Marc-Olivier Méhu
Technical & hardware support : Manuel Goepfert

Contact : metmap@orbifly.com




SOURCES & CREDITS :

   NOAA